Time;durP1;ratioP1;P1;durP2;ratioP2;P2;SDS_P1;SDS_P2;PMS_P1;PMS_P2;Temp;Humidity;BMP_temperature;BMP_pressure;BME280_temperature;BME280_humidity;BME280_pressure;Samples;Min_cycle;Max_cycle;Signal;HPM_P1;HPM_P2
2023/02/18 00:01:46;;;;;;;;;28.00;26.00;;;;;;;;117067;1193;25212;-63
2023/02/18 00:04:15;;;;;;;;;33.50;30.50;;;;;;;;117023;1184;25356;-64
2023/02/18 00:06:43;;;;;;;;;32.00;29.00;;;;;;;;117021;1187;25437;-64
2023/02/18 00:09:12;;;;;;;;;28.00;22.00;;;;;;;;117033;1197;24818;-64
2023/02/18 00:11:40;;;;;;;;;26.00;26.00;;;;;;;;117034;1184;24736;-64
2023/02/18 00:14:14;;;;;;;;;25.00;22.00;;;;;;;;116999;1187;25246;-64
2023/02/18 00:16:44;;;;;;;;;26.00;23.00;;;;;;;;116906;1187;24794;-65
2023/02/18 00:19:15;;;;;;;;;28.00;26.00;;;;;;;;116931;1187;25583;-66
2023/02/18 00:21:44;;;;;;;;;25.00;24.00;;;;;;;;116943;1188;25238;-65
2023/02/18 00:24:14;;;;;;;;;26.50;26.50;;;;;;;;117014;1187;25657;-65
2023/02/18 00:26:44;;;;;;;;;24.00;22.00;;;;;;;;116966;1198;24724;-64
2023/02/18 00:29:12;;;;;;;;;31.50;29.00;;;;;;;;116996;1198;25018;-64
2023/02/18 00:31:41;;;;;;;;;32.00;26.00;;;;;;;;116985;1185;24779;-64
2023/02/18 00:34:11;;;;;;;;;26.00;25.00;;;;;;;;116967;1186;25675;-64
2023/02/18 00:36:40;;;;;;;;;28.00;25.00;;;;;;;;117027;1185;25674;-64
2023/02/18 00:39:10;;;;;;;;;24.00;21.00;;;;;;;;116985;1186;25170;-64
2023/02/18 00:41:39;;;;;;;;;34.00;26.00;;;;;;;;116988;1194;25123;-64
2023/02/18 00:44:08;;;;;;;;;27.00;24.00;;;;;;;;117025;1187;24768;-64
2023/02/18 00:46:36;;;;;;;;;;;;;;;;;;117018;1187;25044;-64
2023/02/18 00:49:06;;;;;;;;;24.00;21.00;;;;;;;;117045;1192;25293;-64
2023/02/18 00:51:35;;;;;;;;;28.00;24.00;;;;;;;;116975;1186;26046;-64
2023/02/18 00:54:03;;;;;;;;;20.00;20.00;;;;;;;;116988;1190;25659;-64
2023/02/18 00:56:32;;;;;;;;;24.00;22.00;;;;;;;;117009;1186;25412;-63
2023/02/18 00:59:00;;;;;;;;;24.00;22.00;;;;;;;;117025;1190;25002;-63
2023/02/18 01:01:29;;;;;;;;;21.50;19.50;;;;;;;;117004;1198;24770;-63
2023/02/18 01:03:57;;;;;;;;;22.50;21.50;;;;;;;;117008;1186;25442;-64
2023/02/18 01:06:26;;;;;;;;;27.00;23.00;;;;;;;;116992;1190;24748;-63
2023/02/18 01:08:55;;;;;;;;;25.00;25.00;;;;;;;;116966;1187;25354;-63
2023/02/18 01:11:24;;;;;;;;;25.00;22.00;;;;;;;;116955;1187;25675;-63
2023/02/18 01:13:52;;;;;;;;;32.00;27.00;;;;;;;;116967;1197;25221;-64
2023/02/18 01:16:22;;;;;;;;;23.00;20.00;;;;;;;;117043;1185;25629;-63
2023/02/18 01:18:52;;;;;;;;;26.00;19.50;;;;;;;;117041;1186;25592;-67
2023/02/18 01:21:20;;;;;;;;;29.00;24.67;;;;;;;;117030;1187;25074;-65
2023/02/18 01:23:49;;;;;;;;;25.00;23.00;;;;;;;;117069;1197;24737;-63
2023/02/18 01:26:17;;;;;;;;;28.00;25.00;;;;;;;;117036;1186;24892;-63
2023/02/18 01:28:46;;;;;;;;;28.00;25.00;;;;;;;;117035;1185;25720;-64
2023/02/18 01:31:15;;;;;;;;;28.50;22.50;;;;;;;;117001;1185;25385;-63
2023/02/18 01:33:44;;;;;;;;;31.00;23.00;;;;;;;;117012;1187;25215;-63
2023/02/18 01:36:12;;;;;;;;;24.50;22.00;;;;;;;;116987;1197;25510;-63
2023/02/18 01:38:41;;;;;;;;;25.67;23.00;;;;;;;;116987;1197;25101;-64
2023/02/18 01:41:09;;;;;;;;;24.00;24.00;;;;;;;;116957;1190;25461;-63
2023/02/18 01:43:38;;;;;;;;;26.67;24.00;;;;;;;;117036;1184;25262;-64
2023/02/18 01:46:21;;;;;;;;;26.50;25.50;;;;;;;;117029;1185;25576;-63
2023/02/18 01:48:54;;;;;;;;;27.00;23.00;;;;;;;;117020;1185;25013;-63
2023/02/18 01:51:25;;;;;;;;;27.50;23.50;;;;;;;;117050;1197;25368;-64
2023/02/18 01:54:12;;;;;;;;;14.50;14.50;;;;;;;;117049;1189;25817;-64
2023/02/18 01:56:40;;;;;;;;;29.00;27.00;;;;;;;;116938;1185;25520;-67
2023/02/18 01:59:14;;;;;;;;;26.00;22.00;;;;;;;;117027;1197;25441;-68
2023/02/18 02:01:45;;;;;;;;;29.00;24.00;;;;;;;;117022;1187;25572;-65
2023/02/18 02:04:13;;;;;;;;;32.33;26.67;;;;;;;;117037;1190;25361;-65
2023/02/18 02:06:42;;;;;;;;;24.00;22.50;;;;;;;;117029;1192;26028;-64
2023/02/18 02:09:13;;;;;;;;;30.67;27.33;;;;;;;;117058;1184;24883;-64
2023/02/18 02:11:53;;;;;;;;;26.00;23.50;;;;;;;;116999;1197;25596;-64
2023/02/18 02:14:40;;;;;;;;;25.00;22.00;;;;;;;;117023;1187;24836;-64
2023/02/18 02:17:32;;;;;;;;;36.50;30.00;;;;;;;;116997;1198;25630;-64
2023/02/18 02:20:28;;;;;;;;;29.00;25.00;;;;;;;;116983;1186;25697;-63
2023/02/18 02:23:23;;;;;;;;;32.00;28.00;;;;;;;;116986;1198;25802;-64
2023/02/18 02:26:13;;;;;;;;;26.50;25.00;;;;;;;;116991;1187;25244;-63
2023/02/18 02:28:41;;;;;;;;;32.00;28.00;;;;;;;;117006;1185;25604;-65
2023/02/18 02:31:18;;;;;;;;;15.00;15.00;;;;;;;;117002;1198;25117;-64
2023/02/18 02:34:27;;;;;;;;;27.00;24.00;;;;;;;;117021;1187;25254;-63
2023/02/18 02:36:56;;;;;;;;;32.50;29.50;;;;;;;;117005;1186;25140;-64
2023/02/18 02:39:42;;;;;;;;;26.00;26.00;;;;;;;;117020;1190;25627;-64
2023/02/18 02:42:11;;;;;;;;;33.00;31.00;;;;;;;;116998;1187;25598;-64
2023/02/18 02:44:51;;;;;;;;;34.00;30.00;;;;;;;;117028;1186;24786;-64
2023/02/18 02:47:25;;;;;;;;;30.00;28.00;;;;;;;;117007;1186;24730;-64
2023/02/18 02:50:23;;;;;;;;;30.00;26.00;;;;;;;;117005;1198;25468;-64
2023/02/18 02:52:57;;;;;;;;;34.00;30.00;;;;;;;;116874;1186;25524;-64
2023/02/18 02:55:26;;;;;;;;;31.00;26.00;;;;;;;;117032;1187;24962;-63
2023/02/18 02:57:55;;;;;;;;;29.00;24.50;;;;;;;;117046;1187;25393;-64
2023/02/18 03:00:42;;;;;;;;;33.50;27.00;;;;;;;;116999;1198;25468;-63
2023/02/18 03:03:16;;;;;;;;;33.00;29.00;;;;;;;;116995;1185;25738;-63
2023/02/18 03:06:40;;;;;;;;;36.00;27.00;;;;;;;;117009;1198;25246;-63
2023/02/18 03:09:42;;;;;;;;;33.00;28.50;;;;;;;;117005;1198;24740;-64
2023/02/18 03:12:32;;;;;;;;;28.50;26.50;;;;;;;;116986;1195;24921;-64
2023/02/18 03:15:07;;;;;;;;;36.00;29.00;;;;;;;;116993;1186;24799;-63
2023/02/18 03:17:54;;;;;;;;;37.00;31.00;;;;;;;;116994;1198;25175;-64
2023/02/18 03:20:35;;;;;;;;;30.00;29.00;;;;;;;;117006;1198;25532;-64
2023/02/18 03:23:07;;;;;;;;;23.00;22.50;;;;;;;;117017;1186;25398;-63
2023/02/18 03:25:37;;;;;;;;;31.00;24.00;;;;;;;;116978;1198;24956;-63
2023/02/18 03:28:13;;;;;;;;;21.50;21.00;;;;;;;;116937;1198;25672;-63
2023/02/18 03:30:47;;;;;;;;;38.00;31.00;;;;;;;;116933;1187;25500;-63
2023/02/18 03:33:21;;;;;;;;;28.50;25.00;;;;;;;;117038;1198;24796;-63
2023/02/18 03:35:50;;;;;;;;;25.00;24.00;;;;;;;;116975;1198;24901;-63
2023/02/18 03:38:29;;;;;;;;;24.00;23.00;;;;;;;;117015;1187;24960;-64
2023/02/18 03:40:57;;;;;;;;;22.00;21.00;;;;;;;;117009;1186;25582;-63
2023/02/18 03:43:26;;;;;;;;;21.00;21.00;;;;;;;;117004;1190;24872;-63
2023/02/18 03:45:54;;;;;;;;;19.00;19.00;;;;;;;;117000;1187;25227;-64
2023/02/18 03:48:22;;;;;;;;;27.50;23.00;;;;;;;;116984;1196;25155;-64
2023/02/18 03:50:51;;;;;;;;;20.00;20.00;;;;;;;;116986;1187;24890;-63
2023/02/18 03:53:19;;;;;;;;;28.00;22.00;;;;;;;;117001;1198;25532;-63
2023/02/18 03:55:48;;;;;;;;;25.50;19.50;;;;;;;;117019;1186;25291;-63
2023/02/18 03:58:16;;;;;;;;;21.00;19.50;;;;;;;;116969;1187;25337;-64
2023/02/18 04:00:45;;;;;;;;;27.00;23.00;;;;;;;;117008;1187;24799;-63
2023/02/18 04:03:13;;;;;;;;;25.00;18.00;;;;;;;;116965;1187;24928;-63
2023/02/18 04:05:42;;;;;;;;;24.00;22.50;;;;;;;;116991;1194;25052;-63
2023/02/18 04:08:10;;;;;;;;;27.00;19.00;;;;;;;;117006;1186;25357;-63
2023/02/18 04:10:39;;;;;;;;;24.50;22.50;;;;;;;;116958;1187;25524;-62
2023/02/18 04:13:07;;;;;;;;;26.50;24.00;;;;;;;;116964;1187;25586;-62
2023/02/18 04:15:36;;;;;;;;;22.00;21.00;;;;;;;;116962;1198;24790;-63
2023/02/18 04:18:05;;;;;;;;;20.00;18.00;;;;;;;;116979;1190;26351;-63
2023/02/18 04:20:33;;;;;;;;;29.00;24.50;;;;;;;;117003;1187;25144;-65
2023/02/18 04:23:03;;;;;;;;;24.00;23.00;;;;;;;;116980;1194;25205;-64
2023/02/18 04:25:31;;;;;;;;;19.50;19.00;;;;;;;;117001;1186;25577;-64
2023/02/18 04:28:00;;;;;;;;;25.00;21.00;;;;;;;;117018;1188;25078;-64
2023/02/18 04:30:29;;;;;;;;;23.50;20.00;;;;;;;;117010;1190;25459;-64
2023/02/18 04:32:57;;;;;;;;;20.00;19.50;;;;;;;;117022;1186;25415;-64
2023/02/18 04:35:26;;;;;;;;;23.50;20.00;;;;;;;;116984;1190;25985;-64
2023/02/18 04:37:54;;;;;;;;;22.67;22.67;;;;;;;;116990;1188;25183;-64
2023/02/18 04:40:25;;;;;;;;;24.00;22.00;;;;;;;;116979;1186;25104;-64
2023/02/18 04:42:53;;;;;;;;;25.50;19.50;;;;;;;;116968;1190;25374;-68
2023/02/18 04:45:22;;;;;;;;;24.00;20.00;;;;;;;;116980;1198;25616;-64
2023/02/18 04:47:52;;;;;;;;;22.50;22.50;;;;;;;;116992;1187;25640;-63
2023/02/18 04:50:22;;;;;;;;;23.00;20.50;;;;;;;;116991;1198;24774;-63
2023/02/18 04:52:50;;;;;;;;;27.00;24.00;;;;;;;;116966;1186;25304;-64
2023/02/18 04:55:18;;;;;;;;;13.00;13.00;;;;;;;;116957;1187;25681;-64
2023/02/18 04:57:47;;;;;;;;;23.00;19.00;;;;;;;;116943;1194;25463;-64
2023/02/18 05:00:18;;;;;;;;;25.00;21.50;;;;;;;;116967;1197;25174;-65
2023/02/18 05:02:46;;;;;;;;;19.33;16.33;;;;;;;;117023;1185;25221;-64
2023/02/18 05:05:15;;;;;;;;;17.00;17.00;;;;;;;;116970;1187;25537;-64
2023/02/18 05:07:43;;;;;;;;;23.00;23.00;;;;;;;;117100;1187;25401;-62
2023/02/18 05:10:15;;;;;;;;;23.50;22.00;;;;;;;;117007;1185;24771;-62
2023/02/18 05:12:43;;;;;;;;;27.50;22.50;;;;;;;;116994;1186;25541;-63
2023/02/18 05:15:12;;;;;;;;;29.00;23.00;;;;;;;;117009;1190;25220;-63
2023/02/18 05:17:41;;;;;;;;;20.50;18.00;;;;;;;;117031;1197;25119;-63
2023/02/18 05:20:10;;;;;;;;;19.00;18.00;;;;;;;;117021;1185;25486;-64
2023/02/18 05:22:38;;;;;;;;;25.50;22.50;;;;;;;;117017;1194;25399;-64
2023/02/18 05:25:07;;;;;;;;;18.00;14.00;;;;;;;;117008;1197;25477;-64
2023/02/18 05:27:36;;;;;;;;;25.00;24.00;;;;;;;;116992;1197;25225;-64
2023/02/18 05:30:05;;;;;;;;;25.50;23.50;;;;;;;;116969;1185;24916;-64
2023/02/18 05:32:33;;;;;;;;;26.33;22.67;;;;;;;;117028;1197;24786;-65
2023/02/18 05:35:02;;;;;;;;;27.50;23.00;;;;;;;;117049;1184;25053;-64
2023/02/18 05:37:31;;;;;;;;;22.50;22.50;;;;;;;;117019;1197;25869;-68
2023/02/18 05:40:00;;;;;;;;;24.50;22.00;;;;;;;;116981;1185;25029;-65
2023/02/18 05:42:28;;;;;;;;;25.00;22.00;;;;;;;;116914;1186;25204;-66
2023/02/18 05:44:56;;;;;;;;;25.00;23.00;;;;;;;;116985;1190;25089;-67
2023/02/18 05:47:25;;;;;;;;;24.00;24.00;;;;;;;;116974;1197;24811;-68
2023/02/18 05:49:54;;;;;;;;;25.00;21.00;;;;;;;;116956;1185;24877;-65
2023/02/18 05:52:23;;;;;;;;;25.00;24.00;;;;;;;;116989;1185;25441;-67
2023/02/18 05:54:52;;;;;;;;;22.00;20.00;;;;;;;;116998;1186;25179;-68
2023/02/18 05:57:20;;;;;;;;;24.00;23.00;;;;;;;;117002;1185;25553;-66
2023/02/18 05:59:49;;;;;;;;;26.00;25.00;;;;;;;;116993;1187;25589;-65
2023/02/18 06:02:17;;;;;;;;;25.50;24.00;;;;;;;;117016;1187;25071;-65
2023/02/18 06:04:46;;;;;;;;;20.00;20.00;;;;;;;;117020;1184;25435;-64
2023/02/18 06:07:15;;;;;;;;;22.00;21.50;;;;;;;;117027;1185;25492;-64
2023/02/18 06:09:43;;;;;;;;;29.00;26.00;;;;;;;;116999;1197;24917;-64
2023/02/18 06:12:12;;;;;;;;;29.50;23.50;;;;;;;;116999;1184;24904;-64
2023/02/18 06:14:41;;;;;;;;;29.00;25.00;;;;;;;;116983;1197;25513;-65
2023/02/18 06:17:09;;;;;;;;;;;;;;;;;;117061;1187;24975;-64
2023/02/18 06:19:38;;;;;;;;;27.00;25.33;;;;;;;;117014;1185;25081;-66
2023/02/18 06:22:07;;;;;;;;;22.00;21.50;;;;;;;;117053;1185;25699;-65
2023/02/18 06:24:36;;;;;;;;;25.50;21.00;;;;;;;;116979;1197;25677;-65
2023/02/18 06:27:04;;;;;;;;;23.50;21.50;;;;;;;;117014;1185;25076;-64
2023/02/18 06:29:34;;;;;;;;;24.00;22.50;;;;;;;;117010;1185;25553;-65
2023/02/18 06:32:03;;;;;;;;;28.00;22.50;;;;;;;;116977;1186;24850;-64
2023/02/18 06:34:32;;;;;;;;;34.00;25.00;;;;;;;;116986;1187;25261;-64
2023/02/18 06:37:00;;;;;;;;;25.00;23.50;;;;;;;;116998;1197;25588;-65
2023/02/18 06:39:29;;;;;;;;;22.00;20.50;;;;;;;;117039;1187;25315;-64
2023/02/18 06:41:58;;;;;;;;;24.00;20.00;;;;;;;;116967;1184;24889;-62
2023/02/18 06:44:27;;;;;;;;;28.00;25.00;;;;;;;;118898;1190;25044;-64
2023/02/18 06:46:55;;;;;;;;;25.00;22.33;;;;;;;;118942;1197;25392;-63
2023/02/18 06:49:23;;;;;;;;;23.00;22.00;;;;;;;;118962;1197;25110;-64
2023/02/18 06:51:52;;;;;;;;;27.00;21.50;;;;;;;;118964;1197;24794;-64
2023/02/18 06:54:20;;;;;;;;;25.50;20.50;;;;;;;;118960;1188;25497;-64
2023/02/18 06:56:49;;;;;;;;;25.50;22.50;;;;;;;;118867;1197;25018;-63
2023/02/18 06:59:18;;;;;;;;;26.00;23.00;;;;;;;;118959;1197;25098;-64
2023/02/18 07:01:46;;;;;;;;;26.00;22.00;;;;;;;;118869;1190;25617;-63
2023/02/18 07:04:14;;;;;;;;;20.00;19.00;;;;;;;;118960;1197;25027;-63
2023/02/18 07:06:43;;;;;;;;;18.00;18.00;;;;;;;;118972;1189;25034;-64
2023/02/18 07:09:11;;;;;;;;;25.00;20.00;;;;;;;;118966;1189;25663;-63
2023/02/18 07:11:39;;;;;;;;;18.33;17.33;;;;;;;;118846;1197;25032;-63
2023/02/18 07:14:07;;;;;;;;;18.50;16.50;;;;;;;;118957;1197;24936;-63
2023/02/18 07:16:36;;;;;;;;;21.50;18.00;;;;;;;;118880;1197;25258;-63
2023/02/18 07:19:04;;;;;;;;;20.00;18.00;;;;;;;;118874;1197;25011;-63
2023/02/18 07:21:33;;;;;;;;;19.00;16.50;;;;;;;;118960;1197;24818;-63
2023/02/18 07:24:01;;;;;;;;;21.00;19.00;;;;;;;;118977;1189;26100;-63
2023/02/18 07:26:29;;;;;;;;;20.00;15.67;;;;;;;;118959;1197;25611;-63
2023/02/18 07:28:58;;;;;;;;;22.00;19.00;;;;;;;;118973;1197;26029;-64
2023/02/18 07:31:26;;;;;;;;;20.00;17.00;;;;;;;;118973;1189;25651;-64
2023/02/18 07:33:55;;;;;;;;;18.50;16.50;;;;;;;;118976;1189;25657;-64
2023/02/18 07:36:23;;;;;;;;;16.00;16.00;;;;;;;;118988;1189;25212;-64
2023/02/18 07:38:51;;;;;;;;;19.50;18.50;;;;;;;;118950;1197;25329;-64
2023/02/18 07:41:21;;;;;;;;;17.00;16.00;;;;;;;;118971;1197;25214;-63
2023/02/18 07:43:50;;;;;;;;;;;;;;;;;;118878;1197;25375;-64
2023/02/18 07:46:18;;;;;;;;;18.50;17.50;;;;;;;;118890;1197;25771;-63
2023/02/18 07:48:46;;;;;;;;;19.00;17.00;;;;;;;;118857;1197;24894;-63
2023/02/18 07:51:15;;;;;;;;;19.33;16.00;;;;;;;;118955;1197;24893;-64
2023/02/18 07:53:43;;;;;;;;;17.00;16.00;;;;;;;;119015;1189;25681;-63
2023/02/18 07:56:11;;;;;;;;;24.00;17.00;;;;;;;;119007;1197;25525;-63
2023/02/18 07:58:39;;;;;;;;;20.00;15.00;;;;;;;;119021;1197;24937;-63
2023/02/18 08:01:11;;;;;;;;;25.50;18.50;;;;;;;;119015;1197;25550;-63
2023/02/18 08:03:40;;;;;;;;;17.00;17.00;;;;;;;;118873;1197;24828;-63
2023/02/18 08:06:19;;;;;;;;;23.00;22.00;;;;;;;;118882;1197;26582;-63
2023/02/18 08:08:48;;;;;;;;;21.00;17.50;;;;;;;;118856;1197;24719;-63
2023/02/18 08:11:16;;;;;;;;;20.00;16.50;;;;;;;;119011;1189;25552;-63
2023/02/18 08:13:48;;;;;;;;;18.00;17.00;;;;;;;;118988;1197;25474;-63
2023/02/18 08:16:17;;;;;;;;;17.00;17.00;;;;;;;;118863;1197;25004;-63
2023/02/18 08:18:47;;;;;;;;;20.00;17.00;;;;;;;;118896;1194;24976;-64
2023/02/18 08:21:17;;;;;;;;;16.00;16.00;;;;;;;;119026;1189;25420;-63
2023/02/18 08:23:46;;;;;;;;;21.00;19.00;;;;;;;;118868;1197;25814;-63
2023/02/18 08:26:14;;;;;;;;;17.50;16.00;;;;;;;;118871;1197;24783;-63
2023/02/18 08:28:44;;;;;;;;;17.00;17.00;;;;;;;;118871;1197;25582;-63
2023/02/18 08:31:24;;;;;;;;;16.67;16.33;;;;;;;;118851;1197;25272;-62
2023/02/18 08:33:54;;;;;;;;;24.00;18.50;;;;;;;;118851;1197;25425;-62
2023/02/18 08:36:22;;;;;;;;;13.33;12.67;;;;;;;;118858;1197;24940;-62
2023/02/18 08:38:51;;;;;;;;;21.67;15.33;;;;;;;;118993;1197;25608;-62
2023/02/18 08:41:19;;;;;;;;;21.00;18.00;;;;;;;;118996;1197;25272;-62
2023/02/18 08:43:48;;;;;;;;;20.00;17.00;;;;;;;;118866;1197;25603;-62
2023/02/18 08:46:17;;;;;;;;;21.00;17.00;;;;;;;;118877;1197;24867;-62
2023/02/18 08:48:56;;;;;;;;;13.00;12.00;;;;;;;;118889;1190;25658;-61
2023/02/18 08:51:25;;;;;;;;;19.67;18.00;;;;;;;;118994;1189;25700;-62
2023/02/18 08:53:53;;;;;;;;;20.00;16.50;;;;;;;;118986;1189;25523;-62
2023/02/18 08:56:21;;;;;;;;;18.00;17.00;;;;;;;;118980;1197;25183;-62
2023/02/18 08:58:50;;;;;;;;;20.33;17.67;;;;;;;;118899;1197;25082;-62
2023/02/18 09:01:19;;;;;;;;;19.00;17.00;;;;;;;;118985;1197;25111;-62
2023/02/18 09:03:48;;;;;;;;;26.00;19.00;;;;;;;;118975;1197;25197;-61
2023/02/18 09:06:16;;;;;;;;;20.00;15.50;;;;;;;;118889;1197;25041;-61
2023/02/18 09:08:44;;;;;;;;;21.00;18.00;;;;;;;;118994;1197;24946;-61
2023/02/18 09:11:13;;;;;;;;;16.00;16.00;;;;;;;;118972;1197;25607;-61
2023/02/18 09:13:41;;;;;;;;;16.67;16.00;;;;;;;;118904;1197;25360;-62
2023/02/18 09:16:17;;;;;;;;;20.00;15.00;;;;;;;;119036;1197;24689;-61
2023/02/18 09:18:46;;;;;;;;;19.25;15.75;;;;;;;;118925;1197;25666;-61
2023/02/18 09:21:19;;;;;;;;;21.00;18.50;;;;;;;;119028;1197;25476;-61
2023/02/18 09:23:48;;;;;;;;;20.50;18.00;;;;;;;;118919;1190;25515;-61
2023/02/18 09:26:22;;;;;;;;;16.50;14.00;;;;;;;;118879;1197;25441;-61
2023/02/18 09:28:51;;;;;;;;;22.50;16.50;;;;;;;;119012;1189;25380;-61
2023/02/18 09:31:22;;;;;;;;;13.00;13.00;;;;;;;;118864;1197;24948;-61
2023/02/18 09:34:01;;;;;;;;;22.50;19.50;;;;;;;;119031;1197;25448;-62
2023/02/18 09:36:29;;;;;;;;;20.50;17.00;;;;;;;;119033;1197;24785;-61
2023/02/18 09:38:58;;;;;;;;;15.00;12.00;;;;;;;;118936;1197;25165;-62
2023/02/18 09:41:57;;;;;;;;;16.33;13.67;;;;;;;;119045;1193;25698;-61
2023/02/18 09:44:38;;;;;;;;;16.00;16.00;;;;;;;;118874;1197;25284;-61
2023/02/18 09:47:09;;;;;;;;;25.00;20.00;;;;;;;;118897;1194;25456;-61
2023/02/18 09:49:44;;;;;;;;;23.00;18.00;;;;;;;;119050;1197;25670;-61
2023/02/18 09:52:24;;;;;;;;;14.50;13.50;;;;;;;;119039;1197;25585;-61
2023/02/18 09:54:53;;;;;;;;;24.67;20.33;;;;;;;;119013;1197;25591;-61
2023/02/18 09:57:39;;;;;;;;;17.00;16.00;;;;;;;;118878;1190;25435;-61
2023/02/18 10:00:29;;;;;;;;;19.00;18.00;;;;;;;;118894;1197;24696;-61
2023/02/18 10:03:02;;;;;;;;;20.00;16.00;;;;;;;;118887;1197;25359;-62
2023/02/18 10:05:31;;;;;;;;;18.00;17.00;;;;;;;;118890;1197;25418;-62
2023/02/18 10:08:04;;;;;;;;;21.00;16.00;;;;;;;;118879;1190;25283;-62
2023/02/18 10:10:40;;;;;;;;;17.00;17.00;;;;;;;;118905;1190;25275;-62
2023/02/18 10:13:20;;;;;;;;;22.00;19.50;;;;;;;;119036;1197;25092;-62
2023/02/18 10:15:49;;;;;;;;;20.00;18.00;;;;;;;;119020;1188;25468;-62
2023/02/18 10:18:25;;;;;;;;;27.00;21.00;;;;;;;;118883;1197;25065;-62
2023/02/18 10:21:21;;;;;;;;;20.00;17.00;;;;;;;;118916;1197;25430;-62
2023/02/18 10:23:52;;;;;;;;;19.00;15.00;;;;;;;;119030;1197;25073;-62
2023/02/18 10:26:21;;;;;;;;;21.50;21.00;;;;;;;;119013;1197;25092;-61
2023/02/18 10:28:51;;;;;;;;;20.50;17.00;;;;;;;;119012;1197;24808;-61
2023/02/18 10:31:28;;;;;;;;;20.00;20.00;;;;;;;;119049;1197;25000;-61
2023/02/18 10:34:10;;;;;;;;;18.50;18.50;;;;;;;;118907;1197;24883;-62
2023/02/18 10:36:49;;;;;;;;;24.00;17.00;;;;;;;;119050;1193;25244;-62
2023/02/18 10:39:39;;;;;;;;;21.00;19.00;;;;;;;;119052;1197;24884;-62
2023/02/18 10:42:29;;;;;;;;;22.00;20.00;;;;;;;;118891;1197;25303;-62
2023/02/18 10:45:13;;;;;;;;;21.00;19.00;;;;;;;;118890;1197;25273;-63
2023/02/18 10:48:03;;;;;;;;;20.00;17.00;;;;;;;;118895;1197;25236;-61
2023/02/18 10:50:37;;;;;;;;;20.50;20.00;;;;;;;;119052;1188;25617;-63
2023/02/18 10:53:24;;;;;;;;;17.50;16.50;;;;;;;;119056;1197;24796;-63
2023/02/18 10:55:55;;;;;;;;;21.00;19.00;;;;;;;;119046;1197;25060;-63
2023/02/18 10:58:41;;;;;;;;;17.50;17.00;;;;;;;;119049;1188;25552;-62
2023/02/18 11:01:16;;;;;;;;;20.50;20.00;;;;;;;;119035;1197;24812;-62
2023/02/18 11:03:47;;;;;;;;;;;;;;;;;;119053;1197;25618;-63
2023/02/18 11:06:30;;;;;;;;;24.50;22.50;;;;;;;;119021;1197;25164;-62
2023/02/18 11:09:01;;;;;;;;;23.00;20.00;;;;;;;;119025;1193;25328;-62
2023/02/18 11:11:38;;;;;;;;;28.50;23.00;;;;;;;;119029;1193;25747;-62
2023/02/18 11:14:13;;;;;;;;;23.00;19.00;;;;;;;;118883;1197;25692;-63
2023/02/18 11:16:45;;;;;;;;;14.00;11.50;;;;;;;;118902;1194;25073;-63
2023/02/18 11:20:00;;;;;;;;;21.00;18.33;;;;;;;;118894;1188;24792;-63
2023/02/18 11:22:37;;;;;;;;;24.00;22.00;;;;;;;;118807;1199;25275;-62
2023/02/18 11:25:22;;;;;;;;;16.00;14.50;;;;;;;;118816;1199;24887;-62
2023/02/18 11:27:54;;;;;;;;;29.50;22.50;;;;;;;;118995;1197;25652;-62
2023/02/18 11:30:35;;;;;;;;;20.00;18.00;;;;;;;;118927;1197;26523;-62
2023/02/18 11:33:09;;;;;;;;;30.50;23.50;;;;;;;;119034;1193;24816;-62
2023/02/18 11:35:37;;;;;;;;;19.00;16.00;;;;;;;;118886;1197;25625;-62
2023/02/18 11:38:21;;;;;;;;;19.00;19.00;;;;;;;;119045;1197;25127;-62
2023/02/18 11:41:07;;;;;;;;;21.00;20.00;;;;;;;;119028;1197;25121;-62
2023/02/18 11:43:41;;;;;;;;;23.00;21.00;;;;;;;;118891;1198;25073;-63
2023/02/18 11:46:13;;;;;;;;;17.00;17.00;;;;;;;;118877;1197;25623;-62
2023/02/18 11:48:42;;;;;;;;;20.00;20.00;;;;;;;;119012;1197;25168;-62
2023/02/18 11:51:35;;;;;;;;;20.00;19.00;;;;;;;;118909;1197;25530;-62
2023/02/18 11:54:30;;;;;;;;;19.00;18.00;;;;;;;;118889;1190;25691;-62
2023/02/18 11:57:05;;;;;;;;;22.00;20.00;;;;;;;;119055;1188;25039;-61
2023/02/18 11:59:37;;;;;;;;;23.50;19.50;;;;;;;;118869;1197;25480;-62
2023/02/18 12:02:11;;;;;;;;;19.00;18.00;;;;;;;;119040;1197;25400;-62
2023/02/18 12:04:50;;;;;;;;;21.00;19.00;;;;;;;;119044;1197;25584;-62
2023/02/18 12:07:23;;;;;;;;;22.00;20.00;;;;;;;;119062;1197;25616;-62
2023/02/18 12:09:58;;;;;;;;;15.50;11.00;;;;;;;;118940;1197;25125;-62
2023/02/18 12:12:34;;;;;;;;;22.00;19.00;;;;;;;;118872;1197;25085;-61
2023/02/18 12:15:02;;;;;;;;;24.00;21.50;;;;;;;;119010;1189;24700;-62
2023/02/18 12:17:40;;;;;;;;;16.67;16.33;;;;;;;;119022;1197;25011;-62
2023/02/18 12:20:26;;;;;;;;;20.00;19.00;;;;;;;;118876;1197;25638;-62
2023/02/18 12:23:12;;;;;;;;;23.00;21.00;;;;;;;;119016;1197;25746;-62
2023/02/18 12:25:59;;;;;;;;;25.00;22.00;;;;;;;;118870;1197;24856;-62
2023/02/18 12:29:11;;;;;;;;;21.00;19.00;;;;;;;;118885;1197;25420;-62
2023/02/18 12:31:55;;;;;;;;;18.00;16.50;;;;;;;;118710;1193;24848;-62
2023/02/18 12:34:40;;;;;;;;;23.50;22.00;;;;;;;;118707;1193;25217;-62
2023/02/18 12:37:33;;;;;;;;;25.00;20.00;;;;;;;;118811;1197;24939;-63
2023/02/18 12:40:36;;;;;;;;;19.00;18.50;;;;;;;;118967;1197;24926;-62
2023/02/18 12:43:13;;;;;;;;;24.50;18.00;;;;;;;;118693;1201;25063;-63
2023/02/18 12:45:44;;;;;;;;;15.00;14.00;;;;;;;;118953;1197;25672;-62
2023/02/18 12:48:21;;;;;;;;;18.00;18.00;;;;;;;;118969;1197;25557;-61
2023/02/18 12:50:58;;;;;;;;;21.67;19.67;;;;;;;;119006;1197;25007;-61
2023/02/18 12:54:05;;;;;;;;;25.00;21.50;;;;;;;;118982;1197;25042;-61
2023/02/18 12:57:01;;;;;;;;;21.00;18.00;;;;;;;;118846;1197;25252;-61
2023/02/18 13:00:03;;;;;;;;;17.50;14.50;;;;;;;;118976;1197;25227;-61
2023/02/18 13:02:50;;;;;;;;;18.00;14.00;;;;;;;;118995;1197;25321;-61
2023/02/18 13:05:27;;;;;;;;;18.00;14.67;;;;;;;;118865;1197;24895;-61
2023/02/18 13:08:19;;;;;;;;;14.50;13.50;;;;;;;;118992;1197;25118;-61
2023/02/18 13:10:53;;;;;;;;;15.00;14.00;;;;;;;;118968;1197;26163;-62
2023/02/18 13:13:25;;;;;;;;;19.00;18.00;;;;;;;;118975;1189;24969;-62
2023/02/18 13:16:04;;;;;;;;;16.00;16.00;;;;;;;;118839;1196;24793;-62
2023/02/18 13:18:37;;;;;;;;;14.00;14.00;;;;;;;;118844;1196;25692;-62
2023/02/18 13:21:12;;;;;;;;;18.50;15.00;;;;;;;;118879;1197;25350;-62
2023/02/18 13:23:54;;;;;;;;;19.00;18.00;;;;;;;;118859;1197;26493;-61
2023/02/18 13:26:23;;;;;;;;;18.50;16.00;;;;;;;;118864;1197;25646;-61
2023/02/18 13:29:13;;;;;;;;;18.00;15.00;;;;;;;;119004;1196;24940;-61
2023/02/18 13:31:41;;;;;;;;;23.00;16.00;;;;;;;;118858;1197;24749;-62
2023/02/18 13:34:19;;;;;;;;;15.00;14.00;;;;;;;;118976;1197;25450;-62
2023/02/18 13:36:47;;;;;;;;;18.00;15.00;;;;;;;;118879;1197;25158;-62
2023/02/18 13:39:20;;;;;;;;;16.00;13.00;;;;;;;;118985;1193;25207;-62
2023/02/18 13:41:50;;;;;;;;;17.50;16.00;;;;;;;;118871;1197;25488;-62
2023/02/18 13:44:21;;;;;;;;;18.00;15.00;;;;;;;;119145;1189;25258;-63
2023/02/18 13:46:55;;;;;;;;;19.00;14.00;;;;;;;;118961;1197;25647;-62
2023/02/18 13:49:32;;;;;;;;;17.00;17.00;;;;;;;;118984;1197;24720;-62
2023/02/18 13:52:02;;;;;;;;;14.00;12.00;;;;;;;;118887;1197;25066;-62
2023/02/18 13:54:41;;;;;;;;;14.00;14.00;;;;;;;;118876;1197;25531;-63
2023/02/18 13:57:15;;;;;;;;;14.00;10.00;;;;;;;;118884;1197;24994;-63
2023/02/18 13:59:55;;;;;;;;;18.00;17.00;;;;;;;;118880;1197;25436;-60
2023/02/18 14:02:24;;;;;;;;;17.50;15.00;;;;;;;;118884;1190;25637;-60
2023/02/18 14:04:57;;;;;;;;;18.00;16.00;;;;;;;;118993;1197;24684;-62
2023/02/18 14:07:35;;;;;;;;;15.00;13.00;;;;;;;;118875;1197;25028;-61
2023/02/18 14:10:25;;;;;;;;;15.50;12.50;;;;;;;;118988;1197;26108;-62
2023/02/18 14:12:56;;;;;;;;;15.67;14.33;;;;;;;;118998;1189;24701;-61
2023/02/18 14:15:24;;;;;;;;;15.00;14.00;;;;;;;;118975;1193;24774;-61
2023/02/18 14:18:14;;;;;;;;;17.00;13.67;;;;;;;;118994;1197;25405;-61
2023/02/18 14:20:50;;;;;;;;;14.00;13.00;;;;;;;;118972;1197;25695;-61
2023/02/18 14:23:18;;;;;;;;;16.50;16.50;;;;;;;;118872;1197;24784;-61
2023/02/18 14:26:32;;;;;;;;;16.00;13.00;;;;;;;;119014;1197;25120;-62
2023/02/18 14:29:07;;;;;;;;;19.50;17.00;;;;;;;;118871;1197;25589;-61
2023/02/18 14:31:44;;;;;;;;;19.33;17.67;;;;;;;;118859;1197;25481;-62
2023/02/18 14:34:31;;;;;;;;;16.00;16.00;;;;;;;;119003;1189;25033;-62
2023/02/18 14:37:22;;;;;;;;;18.50;16.00;;;;;;;;118882;1197;25448;-62
2023/02/18 14:39:57;;;;;;;;;21.00;17.00;;;;;;;;118863;1197;25072;-62
2023/02/18 14:42:31;;;;;;;;;15.00;15.00;;;;;;;;118843;1197;24815;-62
2023/02/18 14:45:06;;;;;;;;;18.00;18.00;;;;;;;;118971;1197;25522;-62